createdAt,value
2022-08-29T00:01:39.062Z,40.40
2022-08-29T00:04:11.675Z,43.78
2022-08-29T00:06:43.743Z,41.25
2022-08-29T00:09:15.841Z,48.05
2022-08-29T00:11:48.788Z,49.27
2022-08-29T00:14:23.682Z,46.55
2022-08-29T00:16:55.641Z,48.08
2022-08-29T00:19:28.218Z,49.18
2022-08-29T00:22:00.246Z,46.33
2022-08-29T00:24:32.566Z,48.17
2022-08-29T00:27:05.971Z,44.77
2022-08-29T00:29:38.175Z,42.17
2022-08-29T00:32:10.320Z,41.55
2022-08-29T00:34:42.486Z,46.10
2022-08-29T00:37:14.907Z,52.78
2022-08-29T00:39:48.012Z,46.58
2022-08-29T00:42:20.004Z,45.60
2022-08-29T00:44:52.431Z,47.35
2022-08-29T00:47:27.315Z,46.98
2022-08-29T00:50:00.281Z,48.45
2022-08-29T00:52:41.632Z,49.25
2022-08-29T00:55:16.811Z,48.25
2022-08-29T00:57:51.780Z,45.92
2022-08-29T01:00:25.443Z,43.42
2022-08-29T01:02:57.752Z,48.52
2022-08-29T01:05:29.842Z,49.50
2022-08-29T01:08:01.951Z,49.83
2022-08-29T01:10:53.445Z,47.48
2022-08-29T01:13:28.402Z,50.12
2022-08-29T01:16:01.200Z,49.93
2022-08-29T01:18:35.702Z,48.15
2022-08-29T01:24:04.308Z,57.78
2022-08-29T01:26:36.570Z,46.02
2022-08-29T01:29:09.236Z,42.48
2022-08-29T01:31:56.729Z,40.05
2022-08-29T01:34:21.001Z,34.90
2022-08-29T01:37:01.976Z,36.88
2022-08-29T01:39:37.032Z,33.05
2022-08-29T01:42:12.203Z,33.50
2022-08-29T01:44:52.819Z,30.52
2022-08-29T01:47:27.613Z,28.40
2022-08-29T01:52:32.417Z,27.62
2022-08-29T01:55:04.659Z,28.17
2022-08-29T01:57:39.272Z,22.65
2022-08-29T02:00:13.191Z,24.55
2022-08-29T02:02:45.193Z,25.85
2022-08-29T02:05:17.321Z,20.80
2022-08-29T02:07:49.373Z,20.43
2022-08-29T02:10:21.963Z,21.62
2022-08-29T02:12:54.133Z,27.27
2022-08-29T02:15:26.237Z,18.95
2022-08-29T02:17:58.569Z,21.35
2022-08-29T02:20:32.355Z,26.15
2022-08-29T02:23:10.636Z,19.48
2022-08-29T02:25:46.006Z,18.17
2022-08-29T02:28:18.816Z,23.12
2022-08-29T02:30:56.596Z,20.10
2022-08-29T02:33:28.535Z,20.85
2022-08-29T02:36:01.498Z,23.07
2022-08-29T02:38:34.007Z,19.35
2022-08-29T02:41:07.903Z,17.40
2022-08-29T02:43:40.366Z,20.30
2022-08-29T02:46:15.369Z,16.62
2022-08-29T02:48:49.306Z,15.03
2022-08-29T02:51:25.007Z,16.67
2022-08-29T02:53:58.090Z,21.37
2022-08-29T02:56:30.456Z,16.93
2022-08-29T02:59:02.364Z,21.85
2022-08-29T03:01:34.457Z,16.70
2022-08-29T03:04:07.092Z,17.00
2022-08-29T03:06:39.268Z,19.27
2022-08-29T03:09:11.419Z,14.63
2022-08-29T03:11:43.483Z,16.32
2022-08-29T03:14:15.910Z,21.02
2022-08-29T03:16:48.041Z,16.32
2022-08-29T03:19:19.966Z,15.53
2022-08-29T03:21:51.997Z,22.07
2022-08-29T03:24:27.122Z,19.07
2022-08-29T03:26:58.788Z,15.10
2022-08-29T03:29:31.060Z,18.57
2022-08-29T03:32:03.420Z,21.12
2022-08-29T03:34:35.435Z,16.12
2022-08-29T03:37:07.836Z,16.82
2022-08-29T03:39:40.760Z,20.97
2022-08-29T03:42:13.052Z,17.17
2022-08-29T03:44:45.123Z,17.57
2022-08-29T03:47:17.515Z,16.02
2022-08-29T03:49:49.719Z,22.62
2022-08-29T03:52:21.914Z,23.30
2022-08-29T03:54:54.339Z,15.55
2022-08-29T03:57:26.265Z,17.37
2022-08-29T04:00:01.742Z,17.15
2022-08-29T04:02:36.040Z,16.60
2022-08-29T04:05:08.894Z,17.57
2022-08-29T04:07:43.336Z,22.10
2022-08-29T04:10:18.225Z,20.10
2022-08-29T04:12:54.527Z,19.73
2022-08-29T04:15:26.708Z,20.52
2022-08-29T04:18:01.574Z,18.62
2022-08-29T04:20:35.917Z,22.67
2022-08-29T04:23:09.215Z,21.48
2022-08-29T04:25:42.056Z,18.55
2022-08-29T04:28:15.550Z,18.90
2022-08-29T04:30:51.814Z,13.73
2022-08-29T04:33:26.596Z,20.10
2022-08-29T04:35:59.027Z,14.38
2022-08-29T04:38:31.175Z,13.95
2022-08-29T04:41:08.893Z,18.00
2022-08-29T04:43:40.841Z,20.23
2022-08-29T04:46:16.320Z,17.07
2022-08-29T04:48:48.945Z,17.17
2022-08-29T04:51:21.730Z,21.10
2022-08-29T04:53:54.327Z,18.65
2022-08-29T04:56:26.573Z,20.68
2022-08-29T04:58:59.007Z,19.82
2022-08-29T05:01:31.339Z,18.42
2022-08-29T05:04:03.693Z,23.98
2022-08-29T05:06:37.327Z,24.32
2022-08-29T05:09:09.356Z,16.17
2022-08-29T05:11:41.866Z,18.85
2022-08-29T05:14:14.017Z,21.82
2022-08-29T05:16:48.066Z,20.43
2022-08-29T05:19:20.519Z,22.98
2022-08-29T05:21:54.074Z,24.32
2022-08-29T05:24:26.285Z,24.03
2022-08-29T05:26:58.983Z,23.30
2022-08-29T05:29:31.480Z,22.02
2022-08-29T05:32:03.755Z,25.40
2022-08-29T05:34:39.790Z,21.17
2022-08-29T05:37:16.059Z,32.25
2022-08-29T05:39:50.058Z,24.52
2022-08-29T05:42:23.408Z,33.02
2022-08-29T05:44:55.733Z,27.10
2022-08-29T05:47:28.221Z,29.48
2022-08-29T05:50:01.419Z,27.10
2022-08-29T05:52:33.909Z,26.60
2022-08-29T05:55:06.773Z,28.47
2022-08-29T06:00:12.808Z,29.82
2022-08-29T06:02:45.642Z,28.97
2022-08-29T06:05:19.399Z,25.45
2022-08-29T06:07:51.511Z,32.13
2022-08-29T06:10:23.690Z,26.68
2022-08-29T06:12:56.028Z,26.57
2022-08-29T06:15:30.065Z,27.17
2022-08-29T06:18:02.325Z,31.27
2022-08-29T06:20:34.560Z,65.20
2022-08-29T06:23:07.404Z,92.57
2022-08-29T06:25:40.466Z,32.10
2022-08-29T06:28:13.155Z,41.15
2022-08-29T06:30:47.333Z,31.33
2022-08-29T06:33:19.904Z,30.02
2022-08-29T06:35:53.620Z,28.15
2022-08-29T06:38:26.081Z,30.70
2022-08-29T06:40:58.469Z,30.05
2022-08-29T06:43:31.158Z,32.17
2022-08-29T06:46:03.354Z,36.08
2022-08-29T06:48:36.895Z,33.10
2022-08-29T06:51:09.300Z,32.67
2022-08-29T06:53:42.011Z,32.53
2022-08-29T06:56:14.751Z,29.18
2022-08-29T06:58:47.198Z,33.48
2022-08-29T07:01:21.133Z,34.65
2022-08-29T07:03:55.729Z,37.45
2022-08-29T07:06:28.840Z,33.38
2022-08-29T07:09:01.466Z,30.15
2022-08-29T07:11:40.367Z,45.85
2022-08-29T07:14:08.834Z,31.90
2022-08-29T07:16:43.002Z,39.10
2022-08-29T07:19:15.403Z,23.57
2022-08-29T07:21:49.112Z,28.83
2022-08-29T07:24:24.881Z,27.70
2022-08-29T07:26:56.014Z,29.15
2022-08-29T07:29:28.609Z,27.82
2022-08-29T07:32:02.248Z,29.42
2022-08-29T07:34:34.855Z,38.60
2022-08-29T07:37:07.288Z,33.53
2022-08-29T07:39:39.675Z,33.10
2022-08-29T07:42:11.786Z,32.90
2022-08-29T07:44:43.893Z,33.00
2022-08-29T07:47:16.292Z,27.73
2022-08-29T07:49:48.378Z,31.50
2022-08-29T07:52:20.854Z,31.57
2022-08-29T07:54:53.133Z,31.65
2022-08-29T07:57:25.518Z,29.48
2022-08-29T07:59:57.832Z,29.07
2022-08-29T08:02:30.239Z,31.75
2022-08-29T08:05:04.135Z,34.53
2022-08-29T08:07:40.378Z,34.65
2022-08-29T08:10:12.451Z,37.95
2022-08-29T08:12:45.180Z,28.47
2022-08-29T08:15:18.513Z,32.67
2022-08-29T08:17:51.381Z,24.82
2022-08-29T08:20:24.173Z,23.87
2022-08-29T08:22:56.175Z,20.80
2022-08-29T08:25:28.251Z,28.80
2022-08-29T08:28:00.364Z,22.15
2022-08-29T08:30:35.824Z,25.45
2022-08-29T08:33:08.223Z,21.70
2022-08-29T08:35:42.375Z,24.87
2022-08-29T08:38:16.485Z,22.67
2022-08-29T08:41:03.664Z,18.02
2022-08-29T08:43:54.036Z,14.90
2022-08-29T08:46:41.221Z,21.73
2022-08-29T08:49:19.041Z,20.08
2022-08-29T08:51:57.046Z,17.55
2022-08-29T08:54:33.310Z,16.30
2022-08-29T08:57:08.992Z,22.25
2022-08-29T08:59:46.153Z,17.12
2022-08-29T09:02:30.546Z,10.53
2022-08-29T09:08:01.875Z,19.80
2022-08-29T09:11:01.172Z,11.55
2022-08-29T09:13:54.649Z,17.48
2022-08-29T09:16:44.653Z,13.40
2022-08-29T09:19:17.715Z,18.45
2022-08-29T09:21:54.040Z,17.48
2022-08-29T09:24:41.197Z,13.68
2022-08-29T09:27:21.771Z,12.35
2022-08-29T09:30:16.243Z,15.23
2022-08-29T09:33:09.281Z,17.17
2022-08-29T09:35:51.979Z,11.45
2022-08-29T09:38:27.748Z,14.23
2022-08-29T09:41:02.573Z,19.10
2022-08-29T09:43:43.491Z,19.48
2022-08-29T09:46:18.975Z,19.12
2022-08-29T09:48:53.337Z,12.93
2022-08-29T09:54:15.937Z,14.93
2022-08-29T09:56:59.848Z,19.92
2022-08-29T09:59:35.426Z,19.77
2022-08-29T10:02:25.716Z,26.17
2022-08-29T10:05:12.992Z,11.45
2022-08-29T10:07:51.116Z,20.68
2022-08-29T10:10:30.217Z,10.53
2022-08-29T10:13:17.634Z,12.05
2022-08-29T10:16:10.584Z,10.30
2022-08-29T10:18:51.984Z,13.93
2022-08-29T10:21:47.275Z,17.35
2022-08-29T10:24:41.782Z,23.80
2022-08-29T10:27:39.035Z,20.17
2022-08-29T10:30:19.944Z,18.50
2022-08-29T10:33:11.563Z,13.90
2022-08-29T10:35:54.401Z,14.58
2022-08-29T10:38:36.250Z,21.75
2022-08-29T10:41:17.593Z,20.92
2022-08-29T10:43:52.609Z,12.73
2022-08-29T10:46:33.772Z,20.02
2022-08-29T10:49:22.251Z,16.07
2022-08-29T10:52:15.861Z,11.85
2022-08-29T10:55:00.111Z,17.30
2022-08-29T10:57:45.268Z,14.18
2022-08-29T11:00:26.313Z,15.10
2022-08-29T11:03:13.896Z,13.25
2022-08-29T11:05:49.070Z,19.60
2022-08-29T11:08:30.332Z,12.73
2022-08-29T11:11:02.556Z,10.98
2022-08-29T11:13:43.388Z,18.35
2022-08-29T11:16:36.716Z,14.05
2022-08-29T11:19:23.868Z,12.47
2022-08-29T11:22:08.310Z,17.35
2022-08-29T11:24:47.031Z,13.78
2022-08-29T11:27:29.848Z,20.45
2022-08-29T11:30:08.270Z,14.10
2022-08-29T11:32:43.456Z,11.53
2022-08-29T11:35:24.859Z,11.90
2022-08-29T11:38:24.068Z,12.40
2022-08-29T11:43:42.656Z,13.30
2022-08-29T11:46:18.705Z,18.55
2022-08-29T11:48:55.783Z,15.28
2022-08-29T11:51:36.547Z,16.45
2022-08-29T11:54:33.028Z,11.50
2022-08-29T11:57:07.938Z,15.40
2022-08-29T11:59:52.267Z,16.12
2022-08-29T12:02:33.262Z,16.17
2022-08-29T12:05:17.289Z,10.90
2022-08-29T12:07:55.493Z,13.18
2022-08-29T12:10:30.435Z,12.03
2022-08-29T12:13:06.099Z,14.80
2022-08-29T12:15:41.081Z,13.35
2022-08-29T12:18:18.873Z,16.48
2022-08-29T12:20:55.344Z,24.37
2022-08-29T12:23:36.485Z,16.75
2022-08-29T12:26:22.495Z,17.37
2022-08-29T12:28:52.046Z,14.43
2022-08-29T12:32:02.205Z,17.70
2022-08-29T12:37:24.005Z,20.57
2022-08-29T12:40:21.494Z,14.00
2022-08-29T12:43:13.284Z,16.32
2022-08-29T12:45:47.598Z,13.72
2022-08-29T12:48:28.484Z,11.10
2022-08-29T12:51:02.504Z,10.50
2022-08-29T12:53:36.942Z,11.50
2022-08-29T12:56:21.343Z,16.45
2022-08-29T12:58:58.376Z,13.30
2022-08-29T13:01:41.347Z,12.93
2022-08-29T13:04:16.460Z,16.52
2022-08-29T13:07:00.655Z,12.53
2022-08-29T13:09:41.400Z,12.55
2022-08-29T13:12:19.684Z,13.13
2022-08-29T13:14:57.749Z,15.10
2022-08-29T13:17:39.862Z,13.22
2022-08-29T13:20:47.195Z,13.15
2022-08-29T13:23:31.789Z,12.60
2022-08-29T13:26:07.045Z,17.60
2022-08-29T13:28:54.148Z,11.93
2022-08-29T13:31:29.038Z,10.32
2022-08-29T13:34:04.909Z,11.33
2022-08-29T13:36:49.448Z,15.75
2022-08-29T13:42:06.496Z,12.15
2022-08-29T13:44:41.561Z,9.98
2022-08-29T13:47:22.677Z,16.57
2022-08-29T13:50:01.235Z,14.60
2022-08-29T13:52:33.625Z,11.22
2022-08-29T13:55:09.976Z,20.65
2022-08-29T13:57:44.546Z,13.38
2022-08-29T14:00:17.365Z,16.20
2022-08-29T14:05:23.342Z,9.75
2022-08-29T14:07:55.495Z,18.67
2022-08-29T14:10:27.654Z,12.03
2022-08-29T14:13:00.092Z,10.80
2022-08-29T14:15:33.203Z,17.50
2022-08-29T14:18:05.744Z,10.43
2022-08-29T14:20:37.952Z,12.95
2022-08-29T14:23:10.091Z,9.83
2022-08-29T14:25:42.268Z,10.85
2022-08-29T14:28:16.091Z,14.63
2022-08-29T14:30:52.273Z,13.30
2022-08-29T14:33:23.641Z,11.70
2022-08-29T14:35:55.934Z,9.28
2022-08-29T14:38:28.044Z,10.43
2022-08-29T14:41:00.543Z,9.90
2022-08-29T14:43:35.294Z,11.35
2022-08-29T14:46:06.806Z,7.65
2022-08-29T14:48:39.239Z,12.35
2022-08-29T14:51:11.485Z,8.13
2022-08-29T14:53:54.359Z,11.35
2022-08-29T14:56:37.305Z,10.82
2022-08-29T14:58:53.666Z,5.53
2022-08-29T15:01:25.925Z,11.43
2022-08-29T15:03:58.240Z,8.80
2022-08-29T15:06:30.481Z,6.87
2022-08-29T15:09:02.972Z,10.15
2022-08-29T15:11:35.486Z,9.70
2022-08-29T15:14:08.321Z,9.93
2022-08-29T15:16:40.763Z,11.18
2022-08-29T15:19:53.372Z,10.53
2022-08-29T15:21:48.271Z,8.23
2022-08-29T15:24:24.948Z,11.30
2022-08-29T15:26:59.810Z,7.15
2022-08-29T15:29:33.301Z,12.23
2022-08-29T15:32:06.277Z,7.67
2022-08-29T15:34:39.786Z,12.95
2022-08-29T15:37:13.759Z,13.60
2022-08-29T15:39:45.927Z,7.75
2022-08-29T15:42:18.729Z,6.20
2022-08-29T15:44:51.187Z,13.35
2022-08-29T15:47:25.689Z,9.38
2022-08-29T15:49:58.216Z,10.05
2022-08-29T15:52:31.319Z,8.75
2022-08-29T15:55:04.445Z,5.85
2022-08-29T15:57:51.089Z,9.00
2022-08-29T16:00:12.077Z,9.65
2022-08-29T16:02:47.363Z,14.45
2022-08-29T16:05:20.031Z,12.10
2022-08-29T16:07:52.207Z,10.82
2022-08-29T16:10:24.752Z,9.80
2022-08-29T16:12:57.260Z,13.15
2022-08-29T16:15:31.598Z,7.28
2022-08-29T16:18:04.204Z,9.43
2022-08-29T16:20:38.877Z,9.05
2022-08-29T16:23:11.467Z,9.43
2022-08-29T16:25:44.294Z,8.05
2022-08-29T16:28:16.563Z,12.20
2022-08-29T16:30:50.156Z,6.72
2022-08-29T16:33:22.473Z,14.45
2022-08-29T16:35:55.112Z,11.45
2022-08-29T16:38:28.509Z,11.97
2022-08-29T16:41:08.742Z,10.28
2022-08-29T16:43:43.515Z,7.42
2022-08-29T16:46:17.407Z,11.78
2022-08-29T16:48:50.673Z,5.35
2022-08-29T16:51:24.965Z,12.20
2022-08-29T16:53:59.514Z,6.95
2022-08-29T16:59:04.682Z,6.60
2022-08-29T17:01:45.848Z,7.53
2022-08-29T17:04:21.419Z,6.75
2022-08-29T17:06:54.189Z,8.88
2022-08-29T17:09:26.270Z,8.28
2022-08-29T17:12:02.044Z,12.88
2022-08-29T17:14:31.335Z,20.20
2022-08-29T17:17:04.168Z,10.72
2022-08-29T17:19:36.543Z,7.90
2022-08-29T17:22:10.846Z,12.18
2022-08-29T17:24:43.778Z,8.18
2022-08-29T17:27:21.253Z,8.03
2022-08-29T17:29:51.536Z,8.98
2022-08-29T17:32:24.920Z,6.62
2022-08-29T17:34:57.670Z,8.07
2022-08-29T17:37:36.133Z,4.40
2022-08-29T17:40:05.900Z,6.05
2022-08-29T17:42:38.607Z,8.70
2022-08-29T17:45:11.293Z,7.72
2022-08-29T17:47:44.190Z,10.03
2022-08-29T17:50:16.392Z,11.68
2022-08-29T17:52:48.655Z,9.25
2022-08-29T17:55:20.835Z,9.65
2022-08-29T17:57:53.228Z,9.43
2022-08-29T18:00:27.381Z,8.63
2022-08-29T18:03:00.377Z,6.33
2022-08-29T18:05:32.869Z,10.53
2022-08-29T18:08:08.534Z,11.18
2022-08-29T18:10:41.435Z,7.95
2022-08-29T18:13:13.758Z,13.53
2022-08-29T18:15:45.983Z,14.00
2022-08-29T18:18:20.084Z,9.65
2022-08-29T18:20:52.337Z,11.60
2022-08-29T18:23:24.817Z,8.70
2022-08-29T18:25:57.078Z,9.43
2022-08-29T18:28:29.470Z,11.22
2022-08-29T18:31:03.507Z,9.98
2022-08-29T18:33:59.140Z,9.03
2022-08-29T18:36:11.912Z,8.80
2022-08-29T18:38:44.244Z,13.67
2022-08-29T18:41:16.461Z,15.53
2022-08-29T18:43:48.635Z,14.73
2022-08-29T18:46:20.973Z,19.17
2022-08-29T18:48:53.998Z,14.43
2022-08-29T18:51:26.448Z,14.25
2022-08-29T18:53:58.749Z,15.78
2022-08-29T18:56:32.844Z,14.33
2022-08-29T18:59:05.630Z,15.85
2022-08-29T19:01:38.034Z,18.65
2022-08-29T19:04:10.374Z,15.03
2022-08-29T19:06:42.442Z,15.13
2022-08-29T19:09:14.637Z,18.23
2022-08-29T19:11:46.846Z,14.00
2022-08-29T19:14:19.127Z,14.85
2022-08-29T19:16:51.420Z,13.98
2022-08-29T19:19:23.611Z,13.38
2022-08-29T19:21:55.676Z,13.43
2022-08-29T19:24:28.465Z,17.57
2022-08-29T19:27:00.564Z,13.38
2022-08-29T19:29:32.667Z,14.03
2022-08-29T19:32:04.837Z,13.72
2022-08-29T19:34:35.868Z,11.25
2022-08-29T19:37:07.289Z,16.57
2022-08-29T19:39:41.332Z,19.53
2022-08-29T19:42:16.197Z,20.65
2022-08-29T19:44:48.884Z,12.15
2022-08-29T19:47:21.951Z,16.07
2022-08-29T19:49:54.331Z,16.48
2022-08-29T19:52:26.964Z,17.87
2022-08-29T19:55:01.307Z,17.23
2022-08-29T19:57:34.430Z,11.55
2022-08-29T20:00:13.840Z,20.45
2022-08-29T20:02:46.210Z,16.30
2022-08-29T20:05:19.570Z,17.15
2022-08-29T20:07:53.704Z,16.55
2022-08-29T20:13:00.334Z,12.65
2022-08-29T20:15:33.151Z,12.73
2022-08-29T20:18:06.909Z,12.55
2022-08-29T20:20:40.911Z,9.65
2022-08-29T20:23:13.445Z,21.42
2022-08-29T20:25:48.188Z,17.37
2022-08-29T20:28:20.876Z,16.20
2022-08-29T20:30:53.330Z,10.28
2022-08-29T20:33:26.278Z,10.50
2022-08-29T20:36:15.855Z,8.48
2022-08-29T20:38:48.664Z,11.97
2022-08-29T20:41:21.824Z,14.50
2022-08-29T20:43:54.227Z,18.40
2022-08-29T20:46:26.381Z,16.45
2022-08-29T20:48:58.751Z,16.02
2022-08-29T20:51:30.864Z,14.28
2022-08-29T20:54:04.303Z,11.78
2022-08-29T20:56:39.062Z,10.53
2022-08-29T20:59:12.277Z,12.07
2022-08-29T21:01:44.763Z,9.13
2022-08-29T21:04:35.148Z,19.17
2022-08-29T21:07:10.186Z,14.30
2022-08-29T21:09:43.994Z,15.25
2022-08-29T21:12:16.508Z,18.43
2022-08-29T21:14:49.357Z,15.78
2022-08-29T21:17:22.081Z,14.95
2022-08-29T21:19:54.724Z,19.17
2022-08-29T21:22:26.951Z,11.40
2022-08-29T21:24:59.101Z,15.78
2022-08-29T21:27:31.220Z,14.80
2022-08-29T21:30:03.381Z,12.78
2022-08-29T21:32:37.412Z,12.25
2022-08-29T21:35:09.800Z,13.38
2022-08-29T21:37:42.070Z,13.55
2022-08-29T21:40:14.449Z,11.57
2022-08-29T21:42:46.539Z,10.88
2022-08-29T21:45:19.119Z,13.60
2022-08-29T21:47:56.194Z,15.15
2022-08-29T21:50:30.294Z,12.85
2022-08-29T21:53:02.343Z,14.45
2022-08-29T21:55:34.590Z,14.07
2022-08-29T21:58:07.868Z,11.50
2022-08-29T22:00:42.233Z,15.35
2022-08-29T22:03:15.158Z,13.30
2022-08-29T22:05:47.970Z,15.70
2022-08-29T22:08:21.365Z,15.65
2022-08-29T22:10:53.473Z,15.43
2022-08-29T22:13:25.803Z,20.52
2022-08-29T22:16:15.559Z,15.10
2022-08-29T22:18:48.221Z,14.23
2022-08-29T22:21:20.631Z,13.70
2022-08-29T22:23:53.035Z,16.27
2022-08-29T22:26:26.286Z,18.32
2022-08-29T22:28:58.488Z,15.03
2022-08-29T22:31:32.106Z,13.85
2022-08-29T22:34:05.611Z,14.25
2022-08-29T22:36:37.694Z,18.57
2022-08-29T22:39:10.475Z,17.15
2022-08-29T22:41:47.275Z,12.88
2022-08-29T22:46:49.808Z,14.00
2022-08-29T22:49:22.407Z,12.23
2022-08-29T22:51:56.115Z,8.87
2022-08-29T22:54:37.266Z,12.10
2022-08-29T22:57:11.563Z,14.80
2022-08-29T23:02:15.578Z,15.63
2022-08-29T23:04:49.589Z,12.70
2022-08-29T23:07:22.952Z,14.07
2022-08-29T23:09:56.139Z,13.98
2022-08-29T23:12:28.672Z,15.40
2022-08-29T23:15:00.790Z,13.30
2022-08-29T23:17:33.101Z,13.60
2022-08-29T23:20:07.455Z,13.18
2022-08-29T23:22:42.858Z,13.95
2022-08-29T23:25:15.179Z,13.53
2022-08-29T23:27:47.424Z,11.80
2022-08-29T23:30:19.515Z,14.98
2022-08-29T23:32:51.569Z,15.70
2022-08-29T23:35:23.784Z,13.08
2022-08-29T23:37:55.833Z,13.60
2022-08-29T23:40:28.652Z,9.10
2022-08-29T23:43:00.756Z,15.83
2022-08-29T23:45:33.117Z,21.17
2022-08-29T23:48:05.445Z,14.30
2022-08-29T23:50:38.933Z,12.33
2022-08-29T23:53:11.134Z,11.70
2022-08-29T23:55:43.616Z,12.88
2022-08-29T23:58:15.948Z,12.65
